Pewamo, Michigan
Current Conditions -  °F | °C
As of 4:34 AM on Thursday 18 Dec 2014 (Local Time) from KY70 Reporting Station
Overcast Overcast  
Wind Chill: 21°   Ceiling: 3100
Heat Index: 30°   Visibility: 10mi
Dew Point: 26°   Wind: 10mph
Humidity: 83%   Direction: 280°W
Pressure: 30.17"   Gusts: NA
Location:  43°N, 84.85°W
Report Text: KY70 180934Z AUTO 28009KT 10SM SCT015 OVC031 M01/M03 A3017 RMK AO2 T10101035
Loading
Personal Weather Stations






























Interactive Weather Map New forecast layout! Learn more

10-Day Weather Forecast

Advertisements
Track Severe Weather on mobile